Time;durP1;ratioP1;P1;durP2;ratioP2;P2;SDS_P1;SDS_P2;PMS_P1;PMS_P2;Temp;Humidity;BMP_temperature;BMP_pressure;BME280_temperature;BME280_humidity;BME280_pressure;Samples;Min_cycle;Max_cycle;Signal;HPM_P1;HPM_P2
2023/11/18 00:06:32;;;;;;;0.10;0.10;;;;;;;4.83;79.15;101781.00;15363465;28;20031;-51
2023/11/18 00:14:07;;;;;;;0.00;0.00;;;;;;;4.42;80.35;101769.81;15363118;28;20402;-47
2023/11/18 00:21:46;;;;;;;0.08;0.08;;;;;;;4.55;79.65;101778.31;15366910;28;20098;-50
2023/11/18 00:29:20;;;;;;;0.20;0.10;;;;;;;4.54;80.30;101800.56;15367092;28;20494;-53
2023/11/18 00:36:58;;;;;;;0.00;0.00;;;;;;;4.45;80.93;101811.22;15357815;28;20065;-48
2023/11/18 00:44:31;;;;;;;0.03;0.03;;;;;;;4.77;80.17;101821.50;15343343;28;20039;-49
2023/11/18 00:52:06;;;;;;;0.00;0.00;;;;;;;4.57;79.94;101834.00;15343217;28;20051;-49
2023/11/18 00:59:45;;;;;;;0.22;0.17;;;;;;;5.00;78.65;101841.41;15339469;28;20051;-51
2023/11/18 01:07:21;;;;;;;0.10;0.10;;;;;;;4.76;79.77;101849.06;15339923;28;20043;-51
2023/11/18 01:14:55;;;;;;;0.17;0.17;;;;;;;4.39;81.06;101860.50;15340568;28;20090;-53
2023/11/18 01:22:29;;;;;;;0.55;0.47;;;;;;;4.38;81.30;101860.63;15331725;28;20047;-53
2023/11/18 01:30:05;;;;;;;0.10;0.10;;;;;;;4.52;80.83;101858.38;15350965;28;20502;-50
2023/11/18 01:37:40;;;;;;;1.20;0.15;;;;;;;4.65;80.05;101865.19;15349695;28;20051;-52
2023/11/18 01:45:16;;;;;;;0.00;0.00;;;;;;;5.03;78.87;101866.88;15335835;28;20082;-51
2023/11/18 01:52:52;;;;;;;0.00;0.00;;;;;;;4.55;80.91;101883.81;15346997;28;20449;-52
2023/11/18 02:00:27;;;;;;;0.25;0.25;;;;;;;4.51;80.98;101888.56;15378915;28;20061;-49
2023/11/18 02:08:06;;;;;;;0.43;0.43;;;;;;;4.57;80.98;101895.16;15348858;28;20070;-53
2023/11/18 02:15:42;;;;;;;0.65;0.50;;;;;;;4.98;79.40;101885.09;15349042;28;20408;-53
2023/11/18 02:23:26;;;;;;;0.00;0.00;;;;;;;5.01;79.72;101893.63;15333049;28;20665;-50
2023/11/18 02:31:06;;;;;;;0.80;0.43;;;;;;;5.11;79.37;101894.44;15339831;28;20413;-51
2023/11/18 02:38:49;;;;;;;0.77;0.77;;;;;;;4.87;79.45;101907.41;15343859;28;20043;-53
2023/11/18 02:46:27;;;;;;;0.32;0.32;;;;;;;4.93;79.16;101903.31;15328829;28;20039;-51
2023/11/18 02:54:02;;;;;;;0.10;0.10;;;;;;;4.89;79.76;101905.44;15371937;28;20051;-48
2023/11/18 03:01:38;;;;;;;0.10;0.10;;;;;;;5.07;78.95;101897.53;15342996;28;20705;-51
2023/11/18 03:09:13;;;;;;;3.42;0.45;;;;;;;5.15;78.42;101897.66;15366359;28;20470;-49
2023/11/18 03:16:49;;;;;;;0.30;0.30;;;;;;;5.14;78.33;101911.94;15344250;28;20486;-53
2023/11/18 03:24:26;;;;;;;0.00;0.00;;;;;;;4.95;79.36;101912.84;15345304;28;20047;-49
2023/11/18 03:32:05;;;;;;;0.10;0.10;;;;;;;4.98;78.32;101901.06;15348653;28;20035;-51
2023/11/18 03:39:38;;;;;;;0.73;0.73;;;;;;;4.85;77.86;101918.19;15367613;28;20115;-50
2023/11/18 03:47:13;;;;;;;1.98;0.82;;;;;;;4.90;78.25;101915.13;15336955;28;20039;-49
2023/11/18 03:54:52;;;;;;;1.77;0.82;;;;;;;4.65;80.61;101916.53;15352239;28;20097;-48
2023/11/18 04:02:30;;;;;;;0.15;0.15;;;;;;;4.47;81.33;101927.06;15369743;28;20126;-48
2023/11/18 04:10:06;;;;;;;0.13;0.13;;;;;;;4.84;78.37;101915.66;15341896;28;20043;-49
2023/11/18 04:17:44;;;;;;;0.00;0.00;;;;;;;4.77;78.73;101927.88;15378978;28;20494;-48
2023/11/18 04:25:19;;;;;;;0.17;0.17;;;;;;;4.56;80.06;101944.81;15364125;28;20664;-51
2023/11/18 04:32:54;;;;;;;0.00;0.00;;;;;;;4.88;79.56;101937.50;15340613;28;20102;-51
2023/11/18 04:40:28;;;;;;;0.05;0.05;;;;;;;4.82;79.84;101955.72;15365227;28;20098;-50
2023/11/18 04:48:04;;;;;;;0.10;0.10;;;;;;;5.03;78.81;101954.69;15341808;28;20039;-52
2023/11/18 04:55:37;;;;;;;0.15;0.15;;;;;;;4.81;79.97;101958.53;15366456;28;20459;-46
2023/11/18 05:03:12;;;;;;;;;;;;;;;4.61;80.02;101973.66;15377612;28;20039;-49
2023/11/18 05:10:48;;;;;;;0.00;0.00;;;;;;;4.44;79.47;101974.38;15367991;28;20246;-53
2023/11/18 05:18:29;;;;;;;0.00;0.00;;;;;;;4.83;79.02;101967.19;15370752;28;20666;-48
2023/11/18 05:26:04;;;;;;;0.98;0.95;;;;;;;4.85;78.48;101967.91;15372208;28;20061;-52
2023/11/18 05:33:39;;;;;;;0.55;0.55;;;;;;;4.52;79.25;101931.94;15374785;28;20044;-47
2023/11/18 05:41:16;;;;;;;0.05;0.05;;;;;;;4.68;78.12;101980.09;15351053;28;20134;-49
2023/11/18 05:48:52;;;;;;;0.00;0.00;;;;;;;4.85;78.71;101968.75;15349785;28;20051;-52
2023/11/18 05:56:26;;;;;;;0.10;0.10;;;;;;;4.53;78.98;101978.84;15373743;28;20039;-51
2023/11/18 06:04:00;;;;;;;;;;;;;;;5.00;77.86;101977.13;15374815;28;20043;-50
2023/11/18 06:11:35;;;;;;;0.00;0.00;;;;;;;4.48;79.50;101981.09;15353415;28;19926;-52
2023/11/18 06:19:09;;;;;;;;;;;;;;;4.22;80.05;101976.31;15372762;28;20050;-51
2023/11/18 06:26:43;;;;;;;0.30;0.30;;;;;;;4.00;81.08;101964.09;15371485;28;19929;-51
2023/11/18 06:34:20;;;;;;;1.17;0.52;;;;;;;4.31;80.90;101996.75;15344513;28;20051;-53
2023/11/18 06:41:54;;;;;;;0.40;0.40;;;;;;;4.33;80.68;102002.75;15367933;28;20074;-53
2023/11/18 06:49:29;;;;;;;0.00;0.00;;;;;;;4.68;79.35;102004.03;15368949;28;20058;-51
2023/11/18 06:57:03;;;;;;;0.05;0.05;;;;;;;4.55;80.62;102016.75;15369697;28;20074;-50
2023/11/18 07:04:40;;;;;;;0.50;0.40;;;;;;;4.78;78.93;102006.69;15377606;28;20051;-52
2023/11/18 07:12:13;;;;;;;0.00;0.00;;;;;;;4.82;78.45;102019.56;15369023;28;20462;-50
2023/11/18 07:19:49;;;;;;;0.35;0.35;;;;;;;4.77;79.24;102013.81;15366963;28;20051;-48
2023/11/18 07:27:22;;;;;;;0.00;0.00;;;;;;;4.51;79.12;102024.16;15423929;23;20047;-57
2023/11/18 07:35:08;;;;;;;1.20;0.32;;;;;;;5.56;76.13;102031.31;15597713;28;20409;-58
2023/11/18 07:42:45;;;;;;;1.90;0.95;;;;;;;4.99;78.24;102043.75;15642636;28;20045;-56
2023/11/18 07:50:22;;;;;;;0.00;0.00;;;;;;;4.57;79.60;102047.56;15666334;28;20427;-58
2023/11/18 07:57:56;;;;;;;0.52;0.43;;;;;;;4.85;77.84;102064.50;15666941;28;20182;-58
2023/11/18 08:05:31;;;;;;;0.52;0.52;;;;;;;5.15;77.38;102069.81;15667480;28;20411;-57
2023/11/18 08:13:06;;;;;;;0.10;0.10;;;;;;;4.83;78.68;102076.25;15666646;28;20037;-57
2023/11/18 08:20:43;;;;;;;0.40;0.40;;;;;;;4.99;77.91;102063.25;15665876;28;20426;-56
2023/11/18 08:28:16;;;;;;;0.75;0.38;;;;;;;5.21;78.21;102064.75;15665619;28;20083;-56
2023/11/18 08:35:52;;;;;;;0.32;0.32;;;;;;;5.28;77.81;102065.88;15678938;28;20037;-54
2023/11/18 08:43:30;;;;;;;0.20;0.20;;;;;;;5.51;76.88;102050.41;15660598;28;20049;-57
2023/11/18 08:51:07;;;;;;;0.32;0.32;;;;;;;5.22;77.01;102073.56;15671209;28;20095;-57
2023/11/18 08:58:44;;;;;;;0.10;0.10;;;;;;;5.38;76.89;102079.16;15678798;28;20043;-58
2023/11/18 09:06:25;;;;;;;1.13;0.32;;;;;;;5.34;77.38;102088.41;15675209;28;20045;-60
2023/11/18 09:14:03;;;;;;;0.20;0.20;;;;;;;4.75;79.60;102100.06;15667361;28;20510;-59
2023/11/18 09:21:39;;;;;;;0.50;0.28;;;;;;;4.99;80.31;102103.16;15677009;28;20162;-56
2023/11/18 09:29:13;;;;;;;1.98;0.52;;;;;;;4.89;78.66;102098.81;15670343;28;20738;-58
2023/11/18 09:36:49;;;;;;;0.32;0.32;;;;;;;5.09;78.05;102082.72;15652415;28;20124;-57
2023/11/18 09:44:25;;;;;;;0.25;0.25;;;;;;;6.07;73.68;102089.47;15653255;28;20119;-55
2023/11/18 09:52:04;;;;;;;0.00;0.00;;;;;;;5.89;75.49;102102.69;15665328;28;20049;-59
2023/11/18 09:59:54;;;;;;;0.00;0.00;;;;;;;5.62;76.02;102110.63;15672626;28;20484;-56
2023/11/18 10:07:32;;;;;;;0.40;0.40;;;;;;;4.98;77.39;102117.44;15671366;28;20087;-58
2023/11/18 10:15:11;;;;;;;0.00;0.00;;;;;;;5.40;76.07;102108.28;15668235;28;20048;-59
2023/11/18 10:22:48;;;;;;;2.72;0.98;;;;;;;5.89;74.55;102096.53;15670715;28;20045;-59
2023/11/18 10:30:21;;;;;;;0.20;0.20;;;;;;;5.32;76.96;102098.38;15671152;28;20055;-59
2023/11/18 10:37:56;;;;;;;1.75;1.65;;;;;;;5.46;77.10;102105.91;15674839;28;20136;-58
2023/11/18 10:45:32;;;;;;;4.15;1.17;;;;;;;5.11;77.38;102112.66;15683433;28;20077;-54
2023/11/18 10:53:11;;;;;;;0.05;0.05;;;;;;;4.65;79.54;102120.47;15670683;28;20436;-59
2023/11/18 11:00:55;;;;;;;0.55;0.55;;;;;;;5.59;74.52;102094.94;15669757;28;20124;-58
2023/11/18 11:08:31;;;;;;;0.55;0.55;;;;;;;5.76;74.12;102099.53;15669119;28;20040;-59
2023/11/18 11:16:12;;;;;;;0.52;0.52;;;;;;;5.56;74.34;102111.22;15652563;28;20036;-56
2023/11/18 11:23:55;;;;;;;0.10;0.10;;;;;;;5.70;73.14;102105.44;15634756;28;20049;-57
2023/11/18 11:31:38;;;;;;;0.00;0.00;;;;;;;6.34;72.57;102080.66;15663321;28;20052;-58
2023/11/18 11:39:15;;;;;;;0.40;0.20;;;;;;;6.33;69.73;102067.44;15666530;28;20036;-58
2023/11/18 11:46:52;;;;;;;0.05;0.05;;;;;;;6.40;69.52;102081.88;15668422;28;20155;-57
2023/11/18 11:54:36;;;;;;;0.75;0.75;;;;;;;6.63;70.69;102069.78;15669111;28;20037;-56
2023/11/18 12:02:11;;;;;;;0.43;0.40;;;;;;;6.59;69.72;102063.06;15644087;28;20669;-59
2023/11/18 12:09:51;;;;;;;0.45;0.45;;;;;;;6.66;70.83;102041.94;15666553;28;20124;-57
2023/11/18 12:17:28;;;;;;;0.20;0.20;;;;;;;7.30;68.59;102021.25;15667448;28;20220;-57
2023/11/18 12:25:33;;;;;;;0.10;0.10;;;;;;;8.02;65.80;102011.94;15639875;28;20049;-59
2023/11/18 12:33:08;;;;;;;0.32;0.22;;;;;;;8.96;63.75;102009.91;15644222;28;20045;-59
2023/11/18 12:40:56;;;;;;;0.85;0.75;;;;;;;12.04;53.75;101997.22;15671104;28;20034;-59
2023/11/18 12:48:37;;;;;;;0.28;0.20;;;;;;;10.01;57.69;102007.94;15669653;28;20049;-56
2023/11/18 12:56:13;;;;;;;0.00;0.00;;;;;;;8.84;61.63;101996.84;15652728;28;20393;-57
2023/11/18 13:03:48;;;;;;;0.20;0.20;;;;;;;8.12;64.98;102003.78;15669946;28;20083;-58
2023/11/18 13:11:27;;;;;;;2.47;0.45;;;;;;;7.18;67.10;101979.78;15669823;28;20414;-59
2023/11/18 13:19:04;;;;;;;0.00;0.00;;;;;;;6.97;68.00;101972.97;15669168;28;20414;-55
2023/11/18 13:26:46;;;;;;;0.10;0.10;;;;;;;6.77;69.45;101979.50;15700099;22;20029;-53
2023/11/18 13:34:20;;;;;;;0.40;0.40;;;;;;;6.18;72.15;101987.13;15728403;28;20040;-51
2023/11/18 13:41:56;;;;;;;0.00;0.00;;;;;;;7.23;69.18;101969.44;15717090;28;20307;-52
2023/11/18 13:49:31;;;;;;;3.60;0.47;;;;;;;7.10;69.15;101956.56;15724722;28;20053;-55
2023/11/18 13:57:06;;;;;;;0.70;0.52;;;;;;;6.77;69.97;101955.50;15694842;28;20044;-54
2023/11/18 14:04:43;;;;;;;0.00;0.00;;;;;;;5.92;73.03;101959.50;15719769;28;20040;-54
2023/11/18 14:12:22;;;;;;;0.32;0.32;;;;;;;6.55;70.03;101952.31;15692454;28;20055;-50
2023/11/18 14:19:56;;;;;;;0.00;0.00;;;;;;;6.39;70.51;101965.53;15717885;28;20064;-51
2023/11/18 14:27:30;;;;;;;0.05;0.05;;;;;;;6.19;70.89;101962.13;15685894;28;20066;-49
2023/11/18 14:35:09;;;;;;;1.35;0.52;;;;;;;5.98;72.19;101951.78;15699931;28;20044;-55
2023/11/18 14:42:46;;;;;;;0.00;0.00;;;;;;;6.06;71.78;101937.69;15701169;28;20417;-52
2023/11/18 14:50:20;;;;;;;0.00;0.00;;;;;;;6.12;72.10;101935.25;15688839;28;20387;-52
2023/11/18 14:57:56;;;;;;;0.00;0.00;;;;;;;5.96;72.58;101927.09;15708424;28;20411;-49
2023/11/18 15:05:34;;;;;;;0.00;0.00;;;;;;;5.81;73.85;101924.06;15705804;28;20403;-50
2023/11/18 15:13:14;;;;;;;0.43;0.43;;;;;;;5.52;74.47;101907.44;15685993;28;20288;-53
2023/11/18 15:20:51;;;;;;;0.00;0.00;;;;;;;5.46;74.07;101897.38;15702965;28;20109;-54
2023/11/18 15:28:28;;;;;;;0.70;0.30;;;;;;;5.42;74.53;101919.97;15676550;28;20049;-52
2023/11/18 15:36:02;;;;;;;0.10;0.10;;;;;;;5.55;73.54;101915.97;15685446;28;20064;-50
2023/11/18 15:43:37;;;;;;;0.47;0.47;;;;;;;5.61;72.80;101898.56;15682898;28;20064;-54
2023/11/18 15:51:15;;;;;;;0.00;0.00;;;;;;;5.34;74.34;101854.13;15683670;28;20411;-50
2023/11/18 15:58:51;;;;;;;0.00;0.00;;;;;;;5.94;70.78;101853.63;15701845;28;20495;-51
2023/11/18 16:06:25;;;;;;;0.05;0.05;;;;;;;5.80;70.40;101861.13;15696372;28;20219;-51
2023/11/18 16:14:05;;;;;;;0.00;0.00;;;;;;;4.82;73.32;101838.69;15707910;28;20044;-53
2023/11/18 16:21:40;;;;;;;0.00;0.00;;;;;;;4.99;73.21;101823.78;15678363;28;20426;-53
2023/11/18 16:29:17;;;;;;;0.22;0.22;;;;;;;5.24;72.65;101832.88;15718317;28;20041;-52
2023/11/18 16:36:56;;;;;;;0.10;0.10;;;;;;;5.00;73.13;101806.00;15685971;28;20041;-53
2023/11/18 16:44:31;;;;;;;0.00;0.00;;;;;;;4.61;74.14;101828.22;15703536;28;20040;-50
2023/11/18 16:52:05;;;;;;;0.30;0.30;;;;;;;4.63;73.70;101819.28;15698909;28;20041;-51
2023/11/18 16:59:40;;;;;;;0.08;0.08;;;;;;;4.44;74.50;101813.06;15708182;28;20033;-53
2023/11/18 17:07:14;;;;;;;0.10;0.10;;;;;;;3.94;76.25;101764.59;15714351;28;20478;-49
2023/11/18 17:14:49;;;;;;;;;;;;;;;4.17;75.76;101783.72;15709720;28;20111;-50
2023/11/18 17:22:22;;;;;;;0.00;0.00;;;;;;;3.91;76.79;101767.53;15685336;28;19920;-55
2023/11/18 17:29:57;;;;;;;0.17;0.17;;;;;;;4.05;75.95;101754.66;15698486;28;20048;-52
2023/11/18 17:37:31;;;;;;;0.00;0.00;;;;;;;4.33;74.41;101741.44;15719382;28;20129;-52
2023/11/18 17:45:08;;;;;;;0.05;0.05;;;;;;;4.31;73.94;101752.22;15691260;28;20049;-53
2023/11/18 17:52:43;;;;;;;0.28;0.28;;;;;;;4.19;75.12;101726.78;15721454;28;20049;-52
2023/11/18 18:00:22;;;;;;;0.00;0.00;;;;;;;4.11;74.88;101713.41;15698138;28;20037;-51
2023/11/18 18:07:56;;;;;;;0.15;0.15;;;;;;;4.09;75.13;101718.84;15687297;28;20041;-55
2023/11/18 18:15:31;;;;;;;0.65;0.52;;;;;;;4.15;75.52;101698.00;15665846;28;20043;-52
2023/11/18 18:23:05;;;;;;;0.05;0.05;;;;;;;4.06;76.21;101710.34;15672630;28;20040;-53
2023/11/18 18:30:41;;;;;;;0.17;0.17;;;;;;;4.24;76.31;101705.97;15714840;28;20056;-55
2023/11/18 18:38:14;;;;;;;0.32;0.32;;;;;;;4.13;76.73;101700.81;15710280;28;20052;-52
2023/11/18 18:45:49;;;;;;;0.25;0.25;;;;;;;4.25;76.64;101678.41;15713559;28;20473;-55
2023/11/18 18:53:23;;;;;;;0.08;0.08;;;;;;;3.81;78.29;101688.72;15706879;28;20052;-52
2023/11/18 19:00:59;;;;;;;0.45;0.45;;;;;;;4.07;77.57;101678.31;15716503;28;20480;-53
2023/11/18 19:08:33;;;;;;;0.00;0.00;;;;;;;3.96;78.20;101669.66;15691169;28;20082;-54
2023/11/18 19:16:09;;;;;;;0.20;0.20;;;;;;;4.00;78.14;101663.91;15713946;28;20048;-55
2023/11/18 19:23:44;;;;;;;0.00;0.00;;;;;;;4.03;77.44;101641.56;15712529;28;20120;-50
2023/11/18 19:31:18;;;;;;;0.00;0.00;;;;;;;4.06;76.88;101626.16;15705681;23;20044;-50
2023/11/18 19:38:52;;;;;;;0.20;0.20;;;;;;;4.18;75.77;101618.00;15704891;28;20553;-51
2023/11/18 19:46:27;;;;;;;0.10;0.10;;;;;;;4.34;74.78;101588.97;15733733;28;20040;-55
2023/11/18 19:54:00;;;;;;;1.65;1.25;;;;;;;4.16;74.88;101586.28;15710109;28;20048;-58
2023/11/18 20:01:35;;;;;;;1.58;0.65;;;;;;;4.44;74.15;101586.25;15705100;28;20060;-58
2023/11/18 20:09:10;;;;;;;0.38;0.38;;;;;;;4.22;74.93;101582.19;15718078;28;20045;-50
2023/11/18 20:16:44;;;;;;;0.52;0.52;;;;;;;4.01;74.58;101585.94;15703052;28;20176;-54
2023/11/18 20:24:18;;;;;;;0.10;0.10;;;;;;;4.27;72.98;101577.25;15724681;28;20471;-56
2023/11/18 20:31:53;;;;;;;0.43;0.35;;;;;;;4.52;71.67;101555.28;15725728;28;20411;-56
2023/11/18 20:39:26;;;;;;;0.13;0.13;;;;;;;4.52;71.00;101526.06;15724728;28;20037;-60
2023/11/18 20:47:00;;;;;;;1.15;0.90;;;;;;;4.39;71.64;101512.28;15724628;28;20106;-52
2023/11/18 20:54:36;;;;;;;0.57;0.32;;;;;;;4.30;70.71;101498.06;15718906;28;20045;-58
2023/11/18 21:02:12;;;;;;;0.93;0.38;;;;;;;4.46;70.27;101492.06;15705675;28;20048;-59
2023/11/18 21:09:47;;;;;;;0.10;0.10;;;;;;;4.55;69.76;101485.84;15708640;28;20045;-54
2023/11/18 21:17:24;;;;;;;;;;;;;;;4.38;69.98;101488.50;15709426;28;20052;-50
2023/11/18 21:25:00;;;;;;;0.15;0.15;;;;;;;4.49;70.48;101453.72;15727493;28;19927;-49
2023/11/18 21:32:35;;;;;;;0.75;0.75;;;;;;;4.55;70.04;101424.69;15725381;28;20060;-55
2023/11/18 21:40:12;;;;;;;0.00;0.00;;;;;;;4.45;70.48;101407.19;15715417;28;20517;-55
2023/11/18 21:47:54;;;;;;;0.47;0.47;;;;;;;4.51;70.32;101362.19;15737951;28;20063;-51
2023/11/18 21:55:31;;;;;;;0.45;0.45;;;;;;;4.51;70.19;101364.03;15717632;28;20087;-52
2023/11/18 22:03:09;;;;;;;0.00;0.00;;;;;;;4.59;69.92;101362.25;15729932;28;20610;-55
2023/11/18 22:10:45;;;;;;;0.28;0.28;;;;;;;4.73;69.79;101358.19;15713645;28;20537;-56
2023/11/18 22:18:22;;;;;;;0.00;0.00;;;;;;;4.52;70.78;101350.59;15716638;28;20045;-56
2023/11/18 22:25:56;;;;;;;0.47;0.47;;;;;;;4.69;71.35;101335.56;15733942;28;20431;-56
2023/11/18 22:33:31;;;;;;;0.25;0.08;;;;;;;4.53;72.38;101333.66;15734564;28;20166;-59
2023/11/18 22:41:07;;;;;;;0.30;0.30;;;;;;;4.43;73.45;101316.97;15727984;28;20221;-53
2023/11/18 22:48:44;;;;;;;0.00;0.00;;;;;;;4.37;73.04;101298.13;15726975;28;20045;-56
2023/11/18 22:56:20;;;;;;;0.35;0.28;;;;;;;4.55;73.49;101264.34;15716047;28;20438;-58
2023/11/18 23:03:58;;;;;;;0.30;0.30;;;;;;;4.28;74.29;101252.06;15721593;28;20056;-50
2023/11/18 23:11:33;;;;;;;0.00;0.00;;;;;;;4.64;72.33;101239.47;15731927;28;20043;-58
2023/11/18 23:19:08;;;;;;;0.70;0.57;;;;;;;4.29;74.43;101233.34;15697657;28;20075;-51
2023/11/18 23:26:41;;;;;;;0.30;0.22;;;;;;;4.35;73.33;101211.44;15705214;28;20041;-55
2023/11/18 23:34:16;;;;;;;0.15;0.15;;;;;;;4.19;74.43;101176.78;15717026;28;20147;-52
2023/11/18 23:41:50;;;;;;;0.05;0.05;;;;;;;4.15;74.58;101156.88;15710013;28;20447;-52
2023/11/18 23:49:27;;;;;;;0.00;0.00;;;;;;;4.09;74.87;101130.91;15685184;28;20489;-57
2023/11/18 23:57:04;;;;;;;0.22;0.22;;;;;;;3.94;75.87;101109.44;15731994;28;20094;-49
